Sira — V7QT5 — position and weather

sailwx.info

Track history (hours):
 
Tides and Currents Weather Stations Pressure Air Temp Water Temp Dewpoint Dewpoint Depression Visibility Wind Speed Wind Dir Waves Ship Positions

Sira

Last reported at 2014-Dec-16 16:09 UTC. Time now 2014-Dec-22 22:03 UTC.
Position N 01°15' E 104°04'.

Length 147 m; draft 7.9 m.

MMSI: 538003434.

Date/timePositionNaut miles runAvg speedWind from/ knotsBaromVisibWave heightAir tempDewpointWater temp
2014-Dec-16 16:09N 01°15' E 104°04'711.8
2014-Dec-16 15:33N 01°14' E 103°57'9 8.6
2014-Dec-16 14:33N 01°12' E 103°48'7 6.6
2014-Dec-16 13:33N 01°15' E 103°43'0 0.0
2014-Dec-16 12:31N 01°15' E 103°43'0 0.1
2014-Dec-16 11:31N 01°15' E 103°43'0 0.1
2014-Dec-16 10:31N 01°15' E 103°43'0 0.0
2014-Dec-16 09:31N 01°15' E 103°43'0 0.1
2014-Dec-16 08:31N 01°15' E 103°43'0 0.0
2014-Dec-16 07:31N 01°15' E 103°43'0 0.0
2014-Dec-16 06:31N 01°15' E 103°43'0 0.1
2014-Dec-16 05:25N 01°15' E 103°43'0 0.0
2014-Dec-16 04:22N 01°15' E 103°43'0 0.0
2014-Dec-16 03:25N 01°15' E 103°43'0 0.0
2014-Dec-16 01:27N 01°15' E 103°43'0 0.1
2014-Dec-16 00:31N 01°15' E 103°43'0 0.0
2014-Dec-15 23:19N 01°15' E 103°43'0 0.0
2014-Dec-15 22:25N 01°15' E 103°43'0 0.0
2014-Dec-15 21:28N 01°15' E 103°43'0 0.0
2014-Dec-15 20:31N 01°15' E 103°43'4 0.8
2014-Dec-15 15:15N 01°13' E 103°39'6 8.8
2014-Dec-15 14:33N 01°16' E 103°45'2 0.3
2014-Dec-15 07:25N 01°18' E 103°44'0 0.0
2014-Dec-15 05:07N 01°18' E 103°44'0 0.0
2014-Dec-14 18:27N 01°18' E 103°44'3 3.0
2014-Dec-14 17:33N 01°16' E 103°46'7 1.6
2014-Dec-14 13:29N 01°13' E 103°39'  
Track history (hours):
 
Tides and Currents Weather Stations Pressure Air Temp Water Temp Dewpoint Dewpoint Depression Visibility Wind Speed Wind Dir Waves Ship Positions

Sira

Last reported at 2014-Dec-16 16:09 UTC. Time now 2014-Dec-22 22:03 UTC.
Position N 01°15' E 104°04'.

Length 147 m; draft 7.9 m.

MMSI: 538003434.

Date/timePositionNaut miles runAvg speedWind from/ knotsBaromVisibWave heightAir tempDewpointWater temp
2014-Dec-16 16:09N 01°15' E 104°04'711.8
2014-Dec-16 15:33N 01°14' E 103°57'9 8.6
2014-Dec-16 14:33N 01°12' E 103°48'7 6.6
2014-Dec-16 13:33N 01°15' E 103°43'0 0.0
2014-Dec-16 12:31N 01°15' E 103°43'0 0.1
2014-Dec-16 11:31N 01°15' E 103°43'0 0.1
2014-Dec-16 10:31N 01°15' E 103°43'0 0.0
2014-Dec-16 09:31N 01°15' E 103°43'0 0.1
2014-Dec-16 08:31N 01°15' E 103°43'0 0.0
2014-Dec-16 07:31N 01°15' E 103°43'0 0.0
2014-Dec-16 06:31N 01°15' E 103°43'0 0.1
2014-Dec-16 05:25N 01°15' E 103°43'0 0.0
2014-Dec-16 04:22N 01°15' E 103°43'0 0.0
2014-Dec-16 03:25N 01°15' E 103°43'0 0.0
2014-Dec-16 01:27N 01°15' E 103°43'0 0.1
2014-Dec-16 00:31N 01°15' E 103°43'0 0.0
2014-Dec-15 23:19N 01°15' E 103°43'0 0.0
2014-Dec-15 22:25N 01°15' E 103°43'0 0.0
2014-Dec-15 21:28N 01°15' E 103°43'0 0.0
2014-Dec-15 20:31N 01°15' E 103°43'4 0.8
2014-Dec-15 15:15N 01°13' E 103°39'6 8.8
2014-Dec-15 14:33N 01°16' E 103°45'2 0.3
2014-Dec-15 07:25N 01°18' E 103°44'0 0.0
2014-Dec-15 05:07N 01°18' E 103°44'0 0.0
2014-Dec-14 18:27N 01°18' E 103°44'3 3.0
2014-Dec-14 17:33N 01°16' E 103°46'7 1.6
2014-Dec-14 13:29N 01°13' E 103°39'  

Dump ship's entire track history